Weather History for KOLY - January, 2014

Change the Weather History Date:

Saturday, January 11, 2014

  Actual Average (KEVV) Record (KEVV)
Temperature  
Mean Temperature 38 °F 32 °F  
Max Temperature 42 °F 41 °F 65 °F (1911)
Min Temperature 33 °F 24 °F -16 °F (1977)
Degree Days  
Heating Degree Days 28 33  
Month to date heating degree days 358  
Since 1 July heating degree days 2130  
Cooling Degree Days 0 0  
Month to date cooling degree days 0  
Year to date cooling degree days 0  
Moisture  
Dew Point 35 °F    
Average Humidity 89    
Maximum Humidity 100    
Minimum Humidity 75    
Precipitation  
Precipitation 0.09 in 0.10 in 1.94 in (1913)
Month to date precipitation 1.09  
Year to date precipitation 1.09  
Snow  
Snow 0.00 in 0.10 in 3.10 in (2011)
Month to date snowfall 1.2  
Since 1 July snowfall 4.7  
Snow Depth -    
Sea Level Pressure  
Sea Level Pressure 29.70 in    
Wind  
Wind Speed 6 mph (WSW)    
Max Wind Speed 16 mph    
Max Gust Speed 24 mph    
Visibility 8 miles    
Events Fog , Rain    
T = Trace of Precipitation, MM = Missing Value Source: NWS Daily Summary

Daily Weather History Graph

Daily Weather History Graph

Search for Another Location

Airport or City:

Trip Planner

Search our weather history database for the weather conditions in past years. The results will help you decide how hot, cold, wet, or windy it might be!

Date:

Astronomy

Jan. 11, 2014 Rise Set
Actual Time 7:10 AM CST 4:51 PM CST
Civil Twilight 6:41 AM CST 5:20 PM CST
Nautical Twilight 6:08 AM CST 5:53 PM CST
Astronomical Twilight 5:36 AM CST 6:25 PM CST
Moon 1:34 PM CST (1/11) 3:15 AM CST (1/11)
Length of Visible Light 10h 39m
Length of Day
9h 40m
Waxing Gibbous, 83% of the Moon is Illuminated
Jan 11
Waxing Gibbous
Jan 15
Full
Jan 23
Last Quarter
Jan 30
New
Feb 6
First Quarter

Hourly Weather History & Observations

Time (CST) Temp. Windchill Dew Point Humidity Pressure Visibility Wind Dir Wind Speed Gust Speed Precip Events Conditions
12:15 AM 42.8 °F 41.1 °F 41.0 °F 93% 29.61 in 1.0 mi SSE 3.5 mph - 0.05 in Rain Rain
12:35 AM 41.0 °F - 41.0 °F 100% 29.59 in 0.5 mi Calm Calm - 0.09 in Rain Rain
12:55 AM 39.2 °F 37.0 °F 39.2 °F 100% 29.58 in 0.2 mi SE 3.5 mph - 0.09 in Rain Light Rain
1:15 AM 39.2 °F - 39.2 °F 100% 29.56 in 0.2 mi Calm Calm - N/A Rain Light Rain
1:35 AM 41.0 °F 37.1 °F 41.0 °F 100% 29.57 in 0.2 mi SE 5.8 mph - N/A Fog Fog
1:55 AM 41.0 °F 39.0 °F 41.0 °F 100% 29.56 in 0.2 mi SSE 3.5 mph - N/A Rain Light Rain
2:15 AM 41.0 °F 37.1 °F 41.0 °F 100% 29.56 in 0.2 mi SSE 5.8 mph - N/A Fog Fog
2:35 AM 42.8 °F - 41.0 °F 93% 29.55 in 0.2 mi Calm Calm - N/A Fog Fog
2:55 AM 42.8 °F 39.3 °F 42.8 °F 100% 29.54 in 0.2 mi South 5.8 mph - N/A Fog Fog
3:15 AM 42.8 °F 40.1 °F 42.8 °F 100% 29.55 in 0.5 mi South 4.6 mph - N/A Fog Fog
3:35 AM 42.8 °F 40.1 °F 42.8 °F 100% 29.55 in 0.5 mi SSW 4.6 mph - N/A Fog Fog
3:55 AM 42.8 °F 39.3 °F 42.8 °F 100% 29.55 in 2.0 mi SW 5.8 mph - N/A   Overcast
4:15 AM 42.8 °F 40.1 °F 42.8 °F 100% 29.56 in 2.5 mi SW 4.6 mph - N/A   Overcast
4:35 AM 42.8 °F 39.3 °F 42.8 °F 100% 29.56 in 4.0 mi SW 5.8 mph - N/A   Overcast
4:55 AM 42.8 °F 38.0 °F 42.8 °F 100% 29.56 in 5.0 mi WSW 8.1 mph - N/A   Overcast
5:15 AM 42.8 °F 36.6 °F 41.0 °F 93% 29.56 in 10.0 mi West 11.5 mph - N/A   Overcast
5:35 AM 41.0 °F 35.2 °F 41.0 °F 100% 29.57 in 10.0 mi West 9.2 mph 16.1 mph N/A   Overcast
5:55 AM 41.0 °F 35.8 °F 39.2 °F 93% 29.58 in 10.0 mi West 8.1 mph - N/A   Overcast
6:15 AM 41.0 °F 35.2 °F 37.4 °F 87% 29.58 in 7.0 mi West 9.2 mph - N/A   Overcast
6:35 AM 39.2 °F 33.0 °F 35.6 °F 87% 29.58 in 10.0 mi WSW 9.2 mph 16.1 mph N/A   Overcast
6:55 AM 39.2 °F 31.6 °F 35.6 °F 87% 29.60 in 10.0 mi WSW 12.7 mph 16.1 mph N/A   Overcast
7:15 AM 37.4 °F 30.3 °F 35.6 °F 93% 29.61 in 10.0 mi West 10.4 mph 17.3 mph N/A   Overcast
7:35 AM 37.4 °F 28.5 °F 35.6 °F 93% 29.62 in 7.0 mi West 15.0 mph 24.2 mph N/A   Overcast
7:55 AM 37.4 °F 30.8 °F 35.6 °F 93% 29.63 in 7.0 mi West 9.2 mph - N/A   Overcast
8:15 AM 37.4 °F 29.8 °F 35.6 °F 93% 29.64 in 7.0 mi West 11.5 mph 17.3 mph N/A   Overcast
8:35 AM 37.4 °F 29.8 °F 33.8 °F 87% 29.64 in 7.0 mi West 11.5 mph - N/A   Overcast
8:55 AM 37.4 °F 30.3 °F 33.8 °F 87% 29.66 in 7.0 mi West 10.4 mph 17.3 mph N/A   Overcast
9:15 AM 37.4 °F 30.8 °F 33.8 °F 87% 29.67 in 10.0 mi West 9.2 mph - N/A   Overcast
9:35 AM 35.6 °F 28.6 °F 33.8 °F 93% 29.67 in 10.0 mi West 9.2 mph - N/A   Overcast
9:55 AM 35.6 °F 27.1 °F 32.0 °F 87% 29.69 in 10.0 mi West 12.7 mph 18.4 mph N/A   Overcast
10:15 AM 35.6 °F 25.9 °F 32.0 °F 87% 29.69 in 10.0 mi West 16.1 mph 21.9 mph N/A   Overcast
10:35 AM 35.6 °F 26.2 °F 32.0 °F 87% 29.71 in 10.0 mi West 15.0 mph 21.9 mph N/A   Overcast
10:55 AM 35.6 °F 27.1 °F 32.0 °F 87% 29.71 in 10.0 mi West 12.7 mph 20.7 mph N/A   Overcast
11:15 AM 35.6 °F 28.6 °F 32.0 °F 87% 29.72 in 10.0 mi West 9.2 mph - N/A   Overcast
11:35 AM 35.6 °F 29.2 °F 32.0 °F 87% 29.72 in 10.0 mi West 8.1 mph - N/A   Overcast
11:55 AM 35.6 °F 27.5 °F 32.0 °F 87% 29.71 in 10.0 mi WSW 11.5 mph 20.7 mph N/A   Overcast
12:15 PM 35.6 °F 27.5 °F 32.0 °F 87% 29.71 in 10.0 mi West 11.5 mph 18.4 mph N/A   Overcast
12:35 PM 35.6 °F 28.0 °F 32.0 °F 87% 29.71 in 7.0 mi WSW 10.4 mph 20.7 mph N/A   Overcast
12:55 PM 35.6 °F 28.0 °F 32.0 °F 87% 29.70 in 7.0 mi WSW 10.4 mph 17.3 mph N/A   Overcast
1:15 PM 35.6 °F 27.5 °F 32.0 °F 87% 29.70 in 7.0 mi WSW 11.5 mph 17.3 mph N/A   Overcast
1:35 PM 35.6 °F 26.6 °F 32.0 °F 87% 29.70 in 7.0 mi West 13.8 mph - N/A   Overcast
1:55 PM 35.6 °F 26.6 °F 32.0 °F 87% 29.71 in 7.0 mi West 13.8 mph 18.4 mph N/A   Overcast
2:15 PM 35.6 °F 27.5 °F 32.0 °F 87% 29.72 in 10.0 mi West 11.5 mph 19.6 mph N/A   Overcast
2:35 PM 37.4 °F 29.3 °F 32.0 °F 81% 29.72 in 10.0 mi WSW 12.7 mph 17.3 mph N/A   Mostly Cloudy
2:55 PM 37.4 °F 30.8 °F 32.0 °F 81% 29.73 in 10.0 mi WSW 9.2 mph - N/A   Scattered Clouds
3:15 PM 39.2 °F 34.2 °F 32.0 °F 75% 29.73 in 10.0 mi WSW 6.9 mph - N/A   Clear
3:35 PM 39.2 °F 34.2 °F 32.0 °F 75% 29.74 in 10.0 mi WSW 6.9 mph - N/A   Clear
3:55 PM 39.2 °F 35.0 °F 32.0 °F 75% 29.74 in 10.0 mi WSW 5.8 mph - N/A   Clear
4:15 PM 39.2 °F - 32.0 °F 75% 29.74 in 10.0 mi Calm Calm - N/A   Clear
4:35 PM 37.4 °F - 32.0 °F 81% 29.75 in 10.0 mi Calm Calm - N/A   Clear
4:55 PM 37.4 °F - 32.0 °F 81% 29.75 in 10.0 mi Calm Calm - N/A   Clear
5:15 PM 37.4 °F - 32.0 °F 81% 29.76 in 10.0 mi Calm Calm - N/A   Clear
5:35 PM 35.6 °F - 32.0 °F 87% 29.77 in 10.0 mi Calm Calm - N/A   Clear
5:55 PM 35.6 °F - 32.0 °F 87% 29.78 in 10.0 mi Calm Calm - N/A   Clear
6:15 PM 35.6 °F - 32.0 °F 87% 29.79 in 10.0 mi Calm Calm - N/A   Clear
6:35 PM 33.8 °F - 32.0 °F 93% 29.79 in 10.0 mi Calm Calm - N/A   Clear
6:55 PM 35.6 °F - 32.0 °F 87% 29.80 in 10.0 mi Calm Calm - N/A   Clear
7:15 PM 35.6 °F - 32.0 °F 87% 29.81 in 10.0 mi Calm Calm - N/A   Clear
7:35 PM 35.6 °F - 32.0 °F 87% 29.82 in 10.0 mi Calm Calm - N/A   Clear
7:55 PM 35.6 °F 30.7 °F 32.0 °F 87% 29.82 in 10.0 mi WSW 5.8 mph - N/A   Clear
8:15 PM 35.6 °F 30.7 °F 32.0 °F 87% 29.84 in 10.0 mi West 5.8 mph - N/A   Clear
8:35 PM 35.6 °F 29.2 °F 32.0 °F 87% 29.84 in 10.0 mi West 8.1 mph - N/A   Clear
8:55 PM 35.6 °F 28.0 °F 32.0 °F 87% 29.85 in 10.0 mi West 10.4 mph - N/A   Clear
9:15 PM 35.6 °F 27.5 °F 32.0 °F 87% 29.86 in 10.0 mi West 11.5 mph - N/A   Clear
9:35 PM 35.6 °F 28.6 °F 32.0 °F 87% 29.87 in 10.0 mi West 9.2 mph - N/A   Clear
9:55 PM 35.6 °F 28.6 °F 32.0 °F 87% 29.88 in 10.0 mi West 9.2 mph - N/A   Clear
10:15 PM 35.6 °F 29.2 °F 32.0 °F 87% 29.88 in 10.0 mi West 8.1 mph - N/A   Clear
10:35 PM 35.6 °F 28.0 °F 32.0 °F 87% 29.88 in 10.0 mi West 10.4 mph - N/A   Clear
10:55 PM 35.6 °F 29.2 °F 32.0 °F 87% 29.89 in 10.0 mi West 8.1 mph - N/A   Clear
11:15 PM 33.8 °F 27.0 °F 30.2 °F 87% 29.90 in 10.0 mi West 8.1 mph - N/A   Clear
11:35 PM 33.8 °F 27.0 °F 30.2 °F 87% 29.90 in 10.0 mi West 8.1 mph - N/A   Clear
11:55 PM 33.8 °F 27.0 °F 30.2 °F 87% 29.90 in 10.0 mi West 8.1 mph - N/A   Clear